Time;durP1;ratioP1;P1;durP2;ratioP2;P2;SDS_P1;SDS_P2;PMS_P1;PMS_P2;Temp;Humidity;BMP_temperature;BMP_pressure;BME280_temperature;BME280_humidity;BME280_pressure;Samples;Min_cycle;Max_cycle;Signal;HPM_P1;HPM_P2
2022/04/18 00:01:59;;;;;;;24.52;9.55;;;;;;;;;;5033135;28;20052;-76
2022/04/18 00:04:25;;;;;;;35.30;17.58;;;;;;;;;;5032794;28;20534;-76
2022/04/18 00:06:51;;;;;;;25.48;14.23;;;;;;;;;;5031646;28;20023;-76
2022/04/18 00:09:17;;;;;;;19.48;10.38;;;;;;;;;;5032613;28;20030;-76
2022/04/18 00:11:43;;;;;;;14.35;7.43;;;;;;;;;;5032786;28;20080;-77
2022/04/18 00:14:10;;;;;;;14.10;7.00;;;;;;;;;;5032557;28;20029;-77
2022/04/18 00:16:37;;;;;;;15.77;7.40;;;;;;;;;;5032199;28;20113;-77
2022/04/18 00:19:03;;;;;;;12.45;6.82;;;;;;;;;;5031907;28;20616;-76
2022/04/18 00:21:29;;;;;;;12.52;6.50;;;;;;;;;;5031930;28;20030;-75
2022/04/18 00:23:54;;;;;;;11.90;6.97;;;;;;;;;;5032066;28;20394;-76
2022/04/18 00:26:20;;;;;;;12.75;7.57;;;;;;;;;;5031807;28;20030;-76
2022/04/18 00:28:46;;;;;;;14.38;6.72;;;;;;;;;;5032076;28;20104;-76
2022/04/18 00:31:12;;;;;;;14.80;6.75;;;;;;;;;;5041004;28;20021;-75
2022/04/18 00:33:39;;;;;;;12.20;6.80;;;;;;;;;;5032461;28;20029;-76
2022/04/18 00:36:05;;;;;;;12.20;6.18;;;;;;;;;;5031972;28;20025;-76
2022/04/18 00:38:31;;;;;;;12.73;6.25;;;;;;;;;;5031178;28;20025;-76
2022/04/18 00:40:57;;;;;;;11.20;5.97;;;;;;;;;;5032584;28;20394;-76
2022/04/18 00:43:41;;;;;;;13.93;8.10;;;;;;;;;;5034520;28;20330;-77
2022/04/18 00:46:08;;;;;;;13.45;6.82;;;;;;;;;;5034383;28;20044;-76
2022/04/18 00:48:34;;;;;;;11.23;6.85;;;;;;;;;;5035414;28;20018;-76
2022/04/18 00:51:00;;;;;;;13.77;6.95;;;;;;;;;;5034172;28;20402;-76
2022/04/18 00:53:26;;;;;;;12.63;5.80;;;;;;;;;;5032630;28;20471;-76
2022/04/18 00:55:53;;;;;;;12.05;6.40;;;;;;;;;;5033779;28;20447;-77
2022/04/18 00:58:19;;;;;;;11.10;6.03;;;;;;;;;;5041827;28;20033;-75
2022/04/18 01:00:45;;;;;;;12.90;6.43;;;;;;;;;;5042738;28;20037;-75
2022/04/18 01:03:11;;;;;;;13.90;6.88;;;;;;;;;;5048096;28;20009;-76
2022/04/18 01:05:37;;;;;;;12.15;6.20;;;;;;;;;;5056346;28;20041;-76
2022/04/18 01:08:04;;;;;;;13.65;7.10;;;;;;;;;;5056346;28;20049;-77
2022/04/18 01:10:30;;;;;;;11.02;6.05;;;;;;;;;;5054178;28;20040;-76
2022/04/18 01:12:56;;;;;;;11.40;6.38;;;;;;;;;;5042998;28;20026;-76
2022/04/18 01:15:22;;;;;;;12.43;6.00;;;;;;;;;;5045282;28;20033;-76
2022/04/18 01:17:48;;;;;;;11.13;5.88;;;;;;;;;;5052629;28;20037;-76
2022/04/18 01:20:14;;;;;;;19.98;6.38;;;;;;;;;;5047371;28;20124;-76
2022/04/18 01:22:44;;;;;;;11.88;5.97;;;;;;;;;;5046682;28;20068;-75
2022/04/18 01:30:39;;;;;;;12.70;6.40;;;;;;;;;;5032195;28;20076;-77
2022/04/18 01:33:06;;;;;;;15.85;6.65;;;;;;;;;;5032708;28;20022;-76
2022/04/18 01:35:31;;;;;;;14.60;6.20;;;;;;;;;;5046302;28;20064;-77
2022/04/18 01:37:57;;;;;;;15.60;6.22;;;;;;;;;;5036739;28;20025;-76
2022/04/18 01:40:23;;;;;;;20.33;11.38;;;;;;;;;;5030233;28;20167;-77
2022/04/18 01:42:49;;;;;;;12.43;6.78;;;;;;;;;;5031202;28;20056;-75
2022/04/18 01:45:15;;;;;;;15.95;6.30;;;;;;;;;;5031263;28;20033;-76
2022/04/18 01:47:41;;;;;;;13.15;6.43;;;;;;;;;;5034879;28;20029;-75
2022/04/18 01:50:07;;;;;;;12.60;6.60;;;;;;;;;;5034027;28;20032;-76
2022/04/18 01:52:33;;;;;;;11.48;5.75;;;;;;;;;;5031974;28;20029;-75
2022/04/18 01:54:59;;;;;;;12.15;6.35;;;;;;;;;;5030214;28;20034;-79
2022/04/18 01:57:25;;;;;;;13.57;6.25;;;;;;;;;;5029839;28;20116;-76
2022/04/18 01:59:51;;;;;;;12.48;6.70;;;;;;;;;;5030496;28;20044;-76
2022/04/18 02:02:17;;;;;;;14.15;6.22;;;;;;;;;;5034835;28;20493;-77
2022/04/18 02:04:43;;;;;;;13.85;6.55;;;;;;;;;;5031333;28;20125;-78
2022/04/18 02:07:10;;;;;;;12.52;6.47;;;;;;;;;;5029884;28;20057;-75
2022/04/18 02:09:37;;;;;;;14.75;7.00;;;;;;;;;;5034441;28;20540;-76
2022/04/18 02:12:04;;;;;;;23.38;12.38;;;;;;;;;;5035154;28;20104;-77
2022/04/18 02:14:29;;;;;;;17.55;8.70;;;;;;;;;;5035283;28;20057;-77
2022/04/18 02:16:56;;;;;;;12.07;6.93;;;;;;;;;;5034370;28;20498;-76
2022/04/18 02:19:22;;;;;;;13.35;6.97;;;;;;;;;;5034913;28;20502;-78
2022/04/18 02:21:48;;;;;;;16.40;7.13;;;;;;;;;;5044086;28;20038;-77
2022/04/18 02:24:14;;;;;;;13.07;7.05;;;;;;;;;;5037619;28;20009;-77
2022/04/18 02:26:40;;;;;;;10.68;6.35;;;;;;;;;;5032851;28;20021;-77
2022/04/18 02:29:06;;;;;;;13.30;6.38;;;;;;;;;;5034287;28;20096;-76
2022/04/18 02:32:47;;;;;;;14.60;7.57;;;;;;;;;;5034255;28;20513;-76
2022/04/18 02:34:18;;;;;;;12.38;6.85;;;;;;;;;;5037206;28;20029;-76
2022/04/18 02:36:44;;;;;;;15.10;7.65;;;;;;;;;;5038357;28;20052;-76
2022/04/18 02:39:10;;;;;;;15.73;7.13;;;;;;;;;;5050679;28;20550;-77
2022/04/18 02:41:36;;;;;;;11.73;6.13;;;;;;;;;;5054558;28;20026;-77
2022/04/18 02:44:02;;;;;;;15.48;7.22;;;;;;;;;;5049160;28;20099;-77
2022/04/18 02:46:28;;;;;;;14.20;6.47;;;;;;;;;;5042271;28;20085;-76
2022/04/18 02:48:54;;;;;;;10.50;6.18;;;;;;;;;;5042320;28;20318;-76
2022/04/18 02:51:20;;;;;;;13.30;6.53;;;;;;;;;;5037744;28;20022;-75
2022/04/18 02:53:46;;;;;;;12.98;7.05;;;;;;;;;;5038169;28;20080;-76
2022/04/18 02:56:12;;;;;;;13.80;6.78;;;;;;;;;;5040081;28;20030;-76
2022/04/18 02:58:38;;;;;;;11.07;6.50;;;;;;;;;;5039993;28;20025;-77
2022/04/18 03:01:04;;;;;;;12.93;6.78;;;;;;;;;;5038179;28;20037;-76
2022/04/18 03:03:29;;;;;;;13.93;6.90;;;;;;;;;;5035303;28;20065;-76
2022/04/18 03:05:55;;;;;;;17.27;7.18;;;;;;;;;;5035244;28;20034;-76
2022/04/18 03:08:21;;;;;;;13.48;7.20;;;;;;;;;;5036211;28;20026;-76
2022/04/18 03:11:02;;;;;;;13.57;7.35;;;;;;;;;;5035818;28;20033;-76
2022/04/18 03:13:28;;;;;;;15.98;7.38;;;;;;;;;;5034802;28;20026;-76
2022/04/18 03:15:54;;;;;;;15.20;7.68;;;;;;;;;;5034017;28;20116;-75
2022/04/18 03:18:20;;;;;;;16.30;7.93;;;;;;;;;;5034616;28;20030;-76
2022/04/18 03:20:46;;;;;;;16.95;8.85;;;;;;;;;;5033297;28;20459;-76
2022/04/18 03:23:12;;;;;;;13.75;7.38;;;;;;;;;;5033671;28;20112;-76
2022/04/18 03:25:38;;;;;;;12.85;7.32;;;;;;;;;;5032981;28;20029;-76
2022/04/18 03:28:04;;;;;;;15.57;7.47;;;;;;;;;;5033486;28;20100;-76
2022/04/18 03:30:30;;;;;;;14.35;7.70;;;;;;;;;;5033002;28;20022;-76
2022/04/18 03:32:56;;;;;;;12.68;6.50;;;;;;;;;;5033041;28;20079;-77
2022/04/18 03:35:22;;;;;;;16.00;7.43;;;;;;;;;;5032664;28;20079;-77
2022/04/18 03:40:34;;;;;;;19.38;7.53;;;;;;;;;;5033279;28;20130;-76
2022/04/18 03:43:00;;;;;;;13.60;7.55;;;;;;;;;;5033055;28;20053;-75
2022/04/18 03:45:26;;;;;;;13.27;7.32;;;;;;;;;;5032726;28;20029;-75
2022/04/18 03:47:52;;;;;;;15.38;8.30;;;;;;;;;;5032927;28;20041;-77
2022/04/18 03:50:18;;;;;;;14.57;7.63;;;;;;;;;;5032960;28;20072;-77
2022/04/18 03:52:44;;;;;;;17.05;8.40;;;;;;;;;;5032946;28;20036;-77
2022/04/18 03:55:11;;;;;;;18.48;8.85;;;;;;;;;;5034168;28;20030;-76
2022/04/18 03:57:37;;;;;;;17.98;7.88;;;;;;;;;;5035666;28;20017;-77
2022/04/18 04:00:04;;;;;;;21.00;8.98;;;;;;;;;;5034785;28;20497;-75
2022/04/18 04:02:30;;;;;;;18.80;9.18;;;;;;;;;;5033985;28;20022;-76
2022/04/18 04:04:56;;;;;;;15.95;7.65;;;;;;;;;;5034385;28;20067;-76
2022/04/18 04:07:22;;;;;;;13.85;7.57;;;;;;;;;;5033728;28;20459;-76
2022/04/18 04:09:48;;;;;;;19.90;10.13;;;;;;;;;;5034613;28;20036;-76
2022/04/18 04:12:14;;;;;;;17.02;9.40;;;;;;;;;;5035164;28;20025;-77
2022/04/18 04:14:40;;;;;;;16.48;8.25;;;;;;;;;;5033532;28;20025;-77
2022/04/18 04:17:06;;;;;;;14.13;7.45;;;;;;;;;;5034411;28;20025;-77
2022/04/18 04:19:32;;;;;;;17.13;8.15;;;;;;;;;;5034217;28;20458;-76
2022/04/18 04:21:58;;;;;;;15.85;7.95;;;;;;;;;;5040899;28;20026;-76
2022/04/18 04:24:24;;;;;;;14.75;7.88;;;;;;;;;;5033343;28;20031;-76
2022/04/18 04:26:50;;;;;;;13.52;7.45;;;;;;;;;;5033945;28;20112;-76
2022/04/18 04:29:17;;;;;;;16.38;8.30;;;;;;;;;;5032937;28;20514;-76
2022/04/18 04:31:43;;;;;;;16.52;7.97;;;;;;;;;;5033297;28;20026;-77
2022/04/18 04:34:10;;;;;;;15.32;7.90;;;;;;;;;;5033601;28;20048;-77
2022/04/18 04:36:37;;;;;;;14.40;7.50;;;;;;;;;;5033140;28;20021;-76
2022/04/18 04:39:03;;;;;;;18.40;7.47;;;;;;;;;;5032904;28;20025;-76
2022/04/18 04:41:29;;;;;;;16.10;8.18;;;;;;;;;;5032932;28;20081;-76
2022/04/18 04:43:55;;;;;;;17.15;8.35;;;;;;;;;;5032821;28;20101;-76
2022/04/18 04:46:21;;;;;;;16.38;7.60;;;;;;;;;;5032260;28;20025;-76
2022/04/18 04:48:47;;;;;;;16.80;8.23;;;;;;;;;;5032077;28;20029;-77
2022/04/18 04:51:13;;;;;;;14.55;8.52;;;;;;;;;;5035213;28;20048;-76
2022/04/18 04:53:39;;;;;;;15.52;8.10;;;;;;;;;;5032612;28;20017;-74
2022/04/18 04:56:05;;;;;;;14.90;7.95;;;;;;;;;;5032928;28;20441;-77
2022/04/18 04:58:31;;;;;;;15.43;8.10;;;;;;;;;;5030615;28;20026;-77
2022/04/18 05:00:57;;;;;;;19.25;8.80;;;;;;;;;;5031532;28;20029;-76
2022/04/18 05:03:23;;;;;;;15.13;8.38;;;;;;;;;;5031724;28;20033;-75
2022/04/18 05:05:49;;;;;;;14.93;8.32;;;;;;;;;;5031432;28;20039;-75
2022/04/18 05:08:15;;;;;;;15.23;8.13;;;;;;;;;;5031934;28;20105;-75
2022/04/18 05:10:41;;;;;;;18.02;8.85;;;;;;;;;;5031513;28;20022;-75
2022/04/18 05:13:07;;;;;;;17.40;8.88;;;;;;;;;;5031622;28;20358;-75
2022/04/18 05:15:33;;;;;;;15.40;8.07;;;;;;;;;;5031374;28;20029;-75
2022/04/18 05:17:59;;;;;;;21.95;9.27;;;;;;;;;;5031459;28;20441;-75
2022/04/18 05:20:25;;;;;;;20.83;9.35;;;;;;;;;;5031649;28;20029;-75
2022/04/18 05:22:51;;;;;;;17.80;9.23;;;;;;;;;;5032719;28;20080;-75
2022/04/18 05:25:17;;;;;;;19.55;9.48;;;;;;;;;;5047563;28;20041;-76
2022/04/18 05:27:43;;;;;;;20.60;9.60;;;;;;;;;;5032052;28;20036;-76
2022/04/18 05:30:09;;;;;;;19.48;10.00;;;;;;;;;;5031324;28;20033;-76
2022/04/18 05:32:35;;;;;;;22.77;10.10;;;;;;;;;;5032906;28;20030;-77
2022/04/18 05:35:01;;;;;;;20.02;9.75;;;;;;;;;;5034010;28;20229;-75
2022/04/18 05:37:27;;;;;;;21.63;10.68;;;;;;;;;;5040788;28;20021;-74
2022/04/18 05:39:53;;;;;;;19.25;10.65;;;;;;;;;;5041022;28;20084;-74
2022/04/18 05:42:22;;;;;;;20.80;11.00;;;;;;;;;;5035904;28;20029;-75
2022/04/18 05:44:48;;;;;;;24.17;11.90;;;;;;;;;;5036366;28;20029;-74
2022/04/18 05:47:14;;;;;;;24.08;11.07;;;;;;;;;;5038406;28;20049;-74
2022/04/18 05:49:40;;;;;;;21.98;10.90;;;;;;;;;;5039046;28;20029;-75
2022/04/18 05:52:06;;;;;;;23.02;10.70;;;;;;;;;;5038867;28;20051;-75
2022/04/18 05:54:32;;;;;;;20.13;10.27;;;;;;;;;;5038671;28;20026;-78
2022/04/18 05:57:00;;;;;;;24.00;10.80;;;;;;;;;;5035179;28;20052;-75
2022/04/18 05:59:26;;;;;;;19.38;10.07;;;;;;;;;;5034027;28;20022;-76
2022/04/18 06:01:52;;;;;;;23.13;11.35;;;;;;;;;;5035630;28;20025;-75
2022/04/18 06:04:18;;;;;;;20.77;10.60;;;;;;;;;;5035289;28;20079;-76
2022/04/18 06:06:44;;;;;;;24.38;10.93;;;;;;;;;;5034657;28;20140;-77
2022/04/18 06:09:10;;;;;;;20.48;10.68;;;;;;;;;;5035702;28;20474;-76
2022/04/18 06:11:36;;;;;;;24.67;11.30;;;;;;;;;;5034904;28;20021;-75
2022/04/18 06:14:02;;;;;;;22.02;10.55;;;;;;;;;;5034941;28;20025;-76
2022/04/18 06:16:28;;;;;;;20.02;11.07;;;;;;;;;;5034654;28;20029;-76
2022/04/18 06:18:54;;;;;;;23.75;11.60;;;;;;;;;;5034531;28;20053;-76
2022/04/18 06:21:20;;;;;;;21.30;10.93;;;;;;;;;;5035368;28;20453;-76
2022/04/18 06:23:46;;;;;;;22.27;11.43;;;12.30;60.00;;;;;;5036131;28;20056;-75
2022/04/18 06:26:12;;;;;;;23.88;11.68;;;9.40;99.90;;;;;;5035182;28;20144;-75
2022/04/18 06:28:38;;;;;;;17.27;10.20;;;9.20;99.90;;;;;;5033752;28;20021;-76
2022/04/18 06:31:03;;;;;;;25.63;11.48;;;9.30;99.90;;;;;;5036224;28;20530;-76
2022/04/18 06:33:29;;;;;;;21.60;11.30;;;9.40;99.90;;;;;;5042331;28;20075;-77
2022/04/18 06:35:55;;;;;;;20.58;11.15;;;9.50;99.90;;;;;;5041976;28;20124;-76
2022/04/18 06:38:21;;;;;;;20.77;10.70;;;9.50;99.90;;;;;;5042168;28;20040;-76
2022/04/18 06:40:46;;;;;;;22.27;10.98;;;9.60;99.90;;;;;;5042687;28;20030;-75
2022/04/18 06:43:15;;;;;;;21.92;10.93;;;9.70;99.90;;;;;;5038256;28;20021;-76
2022/04/18 06:45:40;;;;;;;21.45;11.13;;;9.80;99.90;;;;;;5035585;28;20168;-77
2022/04/18 06:48:06;;;;;;;21.23;10.95;;;9.90;99.90;;;;;;5035648;28;20061;-76
2022/04/18 06:50:31;;;;;;;25.77;11.30;;;9.90;99.90;;;;;;5035356;28;20022;-77
2022/04/18 06:52:57;;;;;;;24.95;11.48;;;10.00;99.90;;;;;;5039523;28;20045;-76
2022/04/18 06:55:23;;;;;;;20.08;10.95;;;10.10;99.90;;;;;;5039453;28;20124;-76
2022/04/18 06:57:48;;;;;;;20.27;11.05;;;10.20;99.90;;;;;;5043676;28;20030;-78
2022/04/18 07:00:14;;;;;;;21.75;10.93;;;10.30;99.90;;;;;;5041029;28;20021;-77
2022/04/18 07:02:46;;;;;;;21.20;11.10;;;10.40;99.90;;;;;;5036670;28;20049;-76
2022/04/18 07:05:12;;;;;;;20.83;10.75;;;10.50;99.90;;;;;;5035335;28;20036;-76
2022/04/18 07:07:38;;;;;;;22.05;11.32;;;10.60;99.90;;;;;;5035304;28;20021;-77
2022/04/18 07:10:04;;;;;;;17.27;10.88;;;10.70;99.90;;;;;;5035237;28;20058;-77
2022/04/18 07:12:30;;;;;;;19.55;10.38;;;10.80;99.90;;;;;;5034968;28;20026;-77
2022/04/18 07:14:58;;;;;;;22.08;10.70;;;10.90;99.90;;;;;;5035972;28;20026;-77
2022/04/18 07:17:24;;;;;;;19.90;10.20;;;11.00;99.90;;;;;;5036083;28;20025;-77
2022/04/18 07:19:50;;;;;;;20.27;10.50;;;11.10;99.90;;;;;;5034989;28;20124;-76
2022/04/18 07:22:16;;;;;;;21.52;10.77;;;11.30;99.90;;;;;;5037845;28;20111;-76
2022/04/18 07:24:42;;;;;;;19.67;10.68;;;11.30;99.90;;;;;;5037939;28;20033;-77
2022/04/18 07:27:07;;;;;;;20.48;11.13;;;11.40;99.90;;;;;;5040395;28;20474;-77
2022/04/18 07:29:33;;;;;;;18.83;10.05;;;11.50;99.90;;;;;;5039196;28;20022;-76
2022/04/18 07:31:58;;;;;;;20.83;10.95;;;11.60;99.90;;;;;;5041774;28;20037;-79
2022/04/18 07:34:24;;;;;;;18.55;9.93;;;;;;;;;;5042950;28;20028;-76
2022/04/18 07:36:50;;;;;;;22.58;10.20;;;;;;;;;;5042162;28;20530;-76
2022/04/18 07:39:16;;;;;;;21.50;10.82;;;;;;;;;;5045518;28;20051;-78
2022/04/18 07:41:42;;;;;;;20.27;10.90;;;;;;;;;;5044963;28;20092;-76
2022/04/18 07:44:08;;;;;;;20.95;11.05;;;;;;;;;;5050855;28;20030;-75
2022/04/18 07:46:35;;;;;;;20.88;10.80;;;;;;;;;;5053459;28;20030;-75
2022/04/18 07:49:01;;;;;;;22.95;10.68;;;;;;;;;;5050603;28;20064;-77
2022/04/18 07:51:36;;;;;;;23.60;11.00;;;;;;;;;;5039621;28;20463;-76
2022/04/18 07:54:09;;;;;;;19.98;9.68;;;;;;;;;;5040624;28;20021;-76
2022/04/18 07:56:35;;;;;;;29.50;12.55;;;;;;;;;;5042906;28;20056;-77
2022/04/18 07:59:01;;;;;;;20.77;10.73;;;;;;;;;;5040320;28;20040;-79
2022/04/18 08:01:27;;;;;;;23.10;11.85;;;;;;;;;;5038320;28;20052;-77
2022/04/18 08:03:54;;;;;;;25.10;10.70;;;;;;;;;;5040012;28;20104;-78
2022/04/18 08:06:20;;;;;;;20.65;10.10;;;;;;;;;;5039029;28;20033;-78
2022/04/18 08:08:46;;;;;;;20.20;10.68;;;;;;;;;;5039903;28;20017;-76
2022/04/18 08:11:14;;;;;;;21.20;10.80;;;;;;;;;;5042784;28;20048;-77
2022/04/18 08:13:41;;;;;;;22.88;10.85;;;;;;;;;;5043311;28;20017;-77
2022/04/18 08:16:07;;;;;;;21.25;10.18;;;;;;;;;;5040286;28;20030;-78
2022/04/18 08:18:36;;;;;;;22.80;11.75;;;;;;;;;;5040762;28;20021;-77
2022/04/18 08:21:02;;;;;;;19.42;10.90;;;;;;;;;;5039052;28;20087;-78
2022/04/18 08:23:28;;;;;;;18.95;9.93;;;;;;;;;;5039184;28;20077;-76
2022/04/18 08:25:54;;;;;;;21.13;11.52;;;;;;;;;;5036215;28;20144;-77
2022/04/18 08:28:20;;;;;;;18.35;9.70;;;;;;;;;;5036730;28;20030;-77
2022/04/18 08:30:46;;;;;;;20.77;10.75;;;;;;;;;;5036725;28;20042;-77
2022/04/18 08:33:12;;;;;;;18.38;10.32;;;;;;;;;;5040290;28;20061;-79
2022/04/18 08:35:38;;;;;;;22.58;9.70;;;;;;;;;;5039295;28;20029;-79
2022/04/18 08:38:04;;;;;;;20.75;10.18;;;;;;;;;;5039976;28;20180;-79
2022/04/18 08:40:30;;;;;;;22.17;10.52;;;;;;;;;;5042061;28;20040;-77
2022/04/18 08:42:56;;;;;;;20.45;10.65;;;;;;;;;;5040027;28;20554;-78
2022/04/18 08:45:24;;;;;;;25.48;10.88;;;;;;;;;;5039238;28;20036;-77
2022/04/18 08:53:24;;;;;;;20.15;10.38;;;;;;;;;;5046901;28;20093;-77
2022/04/18 08:55:50;;;;;;;22.25;10.93;;;;;;;;;;5048498;28;20022;-76
2022/04/18 08:58:16;;;;;;;18.70;11.13;;;;;;;;;;5048270;28;20039;-77
2022/04/18 09:00:42;;;;;;;18.30;10.90;;;;;;;;;;5037814;28;20021;-78
2022/04/18 09:03:08;;;;;;;22.90;11.48;;;;;;;;;;5036681;28;20026;-78
2022/04/18 09:05:36;;;;;;;20.27;10.85;;;;;;;;;;5035890;28;20029;-78
2022/04/18 09:08:03;;;;;;;21.27;11.85;;;;;;;;;;5037001;28;20097;-76
2022/04/18 09:10:29;;;;;;;23.65;12.35;;;;;;;;;;5037392;28;20037;-76
2022/04/18 09:13:14;;;;;;;20.42;11.10;;;;;;;;;;5034966;28;20024;-77
2022/04/18 09:15:41;;;;;;;20.63;11.50;;;;;;;;;;5035610;28;20049;-77
2022/04/18 09:18:12;;;;;;;21.52;11.63;;;;;;;;;;5036532;28;20108;-79
2022/04/18 09:20:42;;;;;;;19.95;12.02;;;;;;;;;;5037029;28;20037;-77
2022/04/18 09:23:27;;;;;;;21.90;12.38;;;;;;;;;;5047920;28;20395;-76
2022/04/18 09:25:53;;;;;;;18.08;11.20;;;;;;;;;;5047940;28;20040;-79
2022/04/18 09:28:22;;;;;;;17.08;10.52;;;;;;;;;;5046760;28;20028;-78
2022/04/18 09:30:56;;;;;;;19.33;11.63;;;;;;;;;;5040393;28;20021;-77
2022/04/18 09:33:22;;;;;;;20.57;11.20;;;;;;;;;;5043524;28;20022;-78
2022/04/18 09:35:48;;;;;;;19.52;10.73;;;;;;;;;;5040330;28;20032;-77
2022/04/18 09:38:16;;;;;;;19.67;10.52;;;;;;;;;;5044126;28;20077;-79
2022/04/18 09:40:42;;;;;;;19.05;10.38;;;;;;;;;;5043716;28;20030;-74
2022/04/18 09:43:08;;;;;;;18.92;10.73;;;;;;;;;;5045274;28;20026;-77
2022/04/18 09:45:37;;;;;;;21.98;10.88;;;;;;;;;;5046749;28;20025;-75
2022/04/18 09:48:03;;;;;;;17.50;9.50;;;;;;;;;;5045839;28;20437;-75
2022/04/18 09:53:21;;;;;;;17.67;10.23;;;;;;;;;;5050909;28;20108;-74
2022/04/18 09:55:47;;;;;;;19.27;10.32;;;;;;;;;;5054546;28;20049;-75
2022/04/18 09:58:14;;;;;;;16.38;10.15;;;;;;;;;;5053730;28;20107;-77
2022/04/18 10:00:40;;;;;;;19.35;10.93;;;;;;;;;;5037867;28;20034;-77
2022/04/18 10:03:07;;;;;;;19.35;10.55;;;;;;;;;;5040384;28;20084;-77
2022/04/18 10:05:34;;;;;;;16.15;9.38;;;;;;;;;;5039547;28;20129;-76
2022/04/18 10:08:04;;;;;;;16.52;10.13;;;;;;;;;;5049054;28;20100;-77
2022/04/18 10:10:32;;;;;;;18.30;10.75;;;;;;;;;;5047520;28;20033;-77
2022/04/18 10:12:58;;;;;;;16.15;9.20;;;;;;;;;;5040255;28;20036;-79
2022/04/18 10:15:24;;;;;;;16.42;8.70;;;;;;;;;;5040935;28;20021;-81
2022/04/18 10:17:51;;;;;;;17.88;9.55;;;;;;;;;;5038915;28;20649;-80
2022/04/18 10:20:29;;;;;;;18.75;10.02;;;;;;;;;;5048075;28;20056;-76
2022/04/18 10:23:07;;;;;;;15.75;9.30;;;;;;;;;;5047002;28;20204;-76
2022/04/18 10:25:33;;;;;;;20.30;8.73;;;;;;;;;;5046184;28;20635;-77
2022/04/18 10:28:05;;;;;;;14.27;8.52;;;;;;;;;;5045929;28;20029;-77
2022/04/18 10:30:40;;;;;;;15.38;7.90;;;;;;;;;;5047496;28;20021;-76
2022/04/18 10:33:09;;;;;;;14.35;8.75;;;;;;;;;;5048016;28;20026;-77
2022/04/18 10:35:35;;;;;;;16.30;8.82;;;;;;;;;;5040630;28;20109;-75
2022/04/18 10:38:02;;;;;;;11.15;7.53;;;;;;;;;;5047952;28;20025;-76
2022/04/18 10:40:38;;;;;;;12.20;6.97;;;;;;;;;;5054966;28;20025;-80
2022/04/18 10:43:07;;;;;;;17.33;7.30;;;;;;;;;;5045877;28;20092;-79
2022/04/18 10:45:34;;;;;;;12.13;6.97;;;;;;;;;;5049790;28;20029;-77
2022/04/18 10:48:01;;;;;;;13.73;7.72;;;;;;;;;;5049322;28;20105;-77
2022/04/18 10:50:29;;;;;;;18.90;7.97;;;;;;;;;;5045035;28;20029;-78
2022/04/18 10:53:11;;;;;;;12.63;7.35;;;;;;;;;;5046171;28;20032;-78
2022/04/18 10:55:38;;;;;;;16.33;7.70;;;;;;;;;;5044011;28;20033;-77
2022/04/18 10:58:13;;;;;;;13.57;7.57;;;;;;;;;;5042116;28;20520;-77
2022/04/18 11:00:46;;;;;;;11.10;6.78;;;;;;;;;;5042633;28;20024;-77
2022/04/18 11:03:12;;;;;;;12.20;6.80;;;;;;;;;;5043353;28;20052;-80
2022/04/18 11:05:38;;;;;;;14.27;7.65;;;;;;;;;;5042334;28;20026;-78
2022/04/18 11:08:11;;;;;;;10.88;7.15;;;;;;;;;;5045340;28;20022;-77
2022/04/18 11:10:38;;;;;;;12.90;6.75;;;;;;;;;;5051046;28;20552;-77
2022/04/18 11:13:06;;;;;;;14.13;7.95;;;;;;;;;;5050513;28;20028;-77
2022/04/18 11:15:32;;;;;;;13.60;8.00;;;;;;;;;;5048829;28;20021;-77
2022/04/18 11:18:01;;;;;;;13.75;8.23;;;;;;;;;;5051046;28;20082;-78
2022/04/18 11:20:27;;;;;;;16.73;8.60;;;;;;;;;;5055455;28;20010;-79
2022/04/18 11:23:15;;;;;;;13.93;8.73;;;;;;;;;;5057684;28;20013;-76
2022/04/18 11:25:50;;;;;;;13.10;7.63;;;;;;;;;;5057435;28;20029;-76
2022/04/18 11:28:16;;;;;;;9.45;6.45;;;;;;;;;;5057266;28;20121;-77
2022/04/18 11:30:42;;;;;;;10.02;6.18;;;;;;;;;;5054023;28;20021;-76
2022/04/18 11:33:08;;;;;;;12.30;6.60;;;;;;;;;;5049298;28;20535;-77
2022/04/18 11:35:35;;;;;;;9.32;5.65;;;;;;;;;;5054189;28;20116;-80
2022/04/18 11:38:08;;;;;;;9.32;6.00;;;;;;;;;;5044918;28;20037;-79
2022/04/18 11:40:40;;;;;;;8.63;5.80;;;;;;;;;;5064006;28;20078;-80
2022/04/18 11:43:17;;;;;;;10.30;5.70;;;;;;;;;;5074798;28;20033;-77
2022/04/18 11:45:43;;;;;;;9.52;6.28;;;;;;;;;;5074583;28;20049;-76
2022/04/18 11:48:13;;;;;;;11.50;6.43;;;;;;;;;;5074328;28;20053;-77
2022/04/18 11:50:43;;;;;;;9.20;5.75;;;;;;;;;;5076820;28;20025;-76
2022/04/18 11:53:09;;;;;;;11.73;5.85;;;;;;;;;;5077506;28;20056;-76
2022/04/18 11:55:51;;;;;;;8.38;5.43;;;;;;;;;;5073355;28;20029;-77
2022/04/18 11:58:21;;;;;;;14.70;8.10;;;;;;;;;;5063145;28;20022;-77
2022/04/18 12:09:07;;;;;;;13.93;5.20;;;;;;;;;;5039724;28;20075;-78
2022/04/18 12:11:37;;;;;;;10.60;6.55;;;;;;;;;;5039830;28;20033;-77
2022/04/18 12:14:03;;;;;;;11.18;6.32;;;;;;;;;;5039413;28;20029;-79
2022/04/18 12:16:32;;;;;;;13.82;6.07;;;;;;;;;;5040181;28;20113;-77
2022/04/18 12:18:58;;;;;;;15.25;8.88;;;;;;;;;;5042257;28;20036;-77
2022/04/18 12:21:27;;;;;;;11.48;6.20;;;;;;;;;;5039374;28;20418;-78
2022/04/18 12:23:57;;;;;;;10.25;5.75;;;;;;;;;;5036807;28;20091;-77
2022/04/18 12:26:27;;;;;;;9.70;5.70;;;;;;;;;;5037375;28;20057;-77
2022/04/18 12:29:00;;;;;;;10.13;5.55;;;;;;;;;;5036144;28;20079;-79
2022/04/18 12:31:26;;;;;;;9.18;4.88;;;;;;;;;;5039556;28;20496;-78
2022/04/18 12:33:52;;;;;;;7.70;5.00;;;;;;;;;;5042777;28;20067;-76
2022/04/18 12:36:22;;;;;;;9.90;5.43;;;;;;;;;;5043246;28;20513;-78
2022/04/18 12:38:48;;;;;;;8.75;4.95;;;;;;;;;;5040358;28;20030;-76
2022/04/18 12:41:15;;;;;;;9.98;5.28;;;24.30;53.20;;;;;;5037243;28;20041;-78
2022/04/18 12:43:41;;;;;;;11.43;6.32;;;29.50;36.60;;;;;;5036570;28;20471;-76
2022/04/18 12:46:08;;;;;;;10.50;6.13;;;29.60;35.80;;;;;;5033950;28;20105;-75
2022/04/18 12:48:36;;;;;;;9.88;6.28;;;29.90;35.20;;;;;;5035511;28;20075;-78
2022/04/18 12:51:03;;;;;;;9.15;5.75;;;;;;;;;;5036565;28;20029;-79
2022/04/18 12:53:45;;;;;;;7.35;4.43;;;;;;;;;;5038336;28;20071;-77
2022/04/18 12:56:11;;;;;;;7.13;4.60;;;;;;;;;;5040891;28;20021;-78
2022/04/18 12:58:43;;;;;;;7.93;4.55;;;;;;;;;;5048958;28;20032;-77
2022/04/18 13:01:09;;;;;;;5.55;3.90;;;;;;;;;;5042140;28;20034;-79
2022/04/18 13:03:42;;;;;;;7.20;3.30;;;;;;;;;;5041995;28;20064;-78
2022/04/18 13:06:08;;;;;;;4.80;3.33;;;;;;;;;;5041720;28;20083;-80
2022/04/18 13:08:38;;;;;;;6.00;3.55;;;;;;;;;;5037777;28;20021;-76
2022/04/18 13:11:05;;;;;;;7.10;3.47;;;;;;;;;;5040855;28;20033;-79
2022/04/18 13:13:31;;;;;;;6.13;2.85;;;;;;;;;;5038849;28;20110;-78
2022/04/18 13:15:57;;;;;;;6.68;3.90;;;;;;;;;;5042406;28;20132;-76
2022/04/18 13:18:25;;;;;;;5.45;3.03;;;;;;;;;;5044320;28;20033;-78
2022/04/18 13:20:51;;;;;;;6.50;3.58;;;;;;;;;;5035003;28;20025;-77
2022/04/18 13:23:17;;;;;;;6.05;3.22;;;;;;;;;;5032019;28;20029;-78
2022/04/18 13:25:45;;;;;;;9.15;3.92;;;;;;;;;;5031214;28;20049;-77
2022/04/18 13:28:11;;;;;;;6.65;2.80;;;;;;;;;;5032678;28;20048;-78
2022/04/18 13:30:38;;;;;;;5.30;3.13;;;;;;;;;;5034358;28;20042;-78
2022/04/18 13:33:05;;;;;;;3.80;2.58;;;;;;;;;;5034114;28;20471;-76
2022/04/18 13:35:32;;;;;;;7.68;4.00;;;;;;;;;;5035249;28;20018;-77
2022/04/18 13:37:58;;;;;;;5.25;3.90;;;;;;;;;;5030793;28;20030;-77
2022/04/18 13:40:24;;;;;;;8.40;3.70;;;;;;;;;;5031891;28;20053;-76
2022/04/18 13:42:50;;;;;;;6.32;3.30;;;;;;;;;;5032137;28;20059;-77
2022/04/18 13:45:16;;;;;;;5.50;3.05;;;;;;;;;;5031509;28;20040;-77
2022/04/18 13:47:43;;;;;;;7.88;5.47;;;;;;;;;;5031343;28;20021;-77
2022/04/18 13:50:11;;;;;;;9.95;6.70;;;;;;;;;;5031135;28;20032;-76
2022/04/18 13:52:37;;;;;;;5.47;3.35;;;;;;;;;;5031590;28;20025;-76
2022/04/18 13:55:03;;;;;;;6.75;3.63;;;;;;;;;;5031572;28;20037;-78
2022/04/18 13:57:29;;;;;;;4.20;3.33;;;;;;;;;;5030922;28;20029;-78
2022/04/18 13:59:55;;;;;;;5.22;3.83;;;;;;;;;;5032315;28;20037;-77
2022/04/18 14:02:21;;;;;;;4.63;2.88;;;;;;;;;;5032031;28;20025;-78
2022/04/18 14:04:47;;;;;;;6.25;3.15;;;;;;;;;;5033858;28;20022;-78
2022/04/18 14:07:13;;;;;;;4.47;2.88;;;;;;;;;;5035521;28;20109;-77
2022/04/18 14:09:39;;;;;;;6.57;3.05;;;;;;;;;;5035764;28;20017;-77
2022/04/18 14:12:05;;;;;;;3.95;2.65;;;;;;;;;;5035583;28;20101;-78
2022/04/18 14:22:45;;;;;;;8.02;2.78;;;;;;;;;;5036219;28;20036;-75
2022/04/18 14:25:11;;;;;;;5.20;2.75;;;;;;;;;;5037406;28;20033;-77
2022/04/18 14:27:37;;;;;;;3.17;2.35;;;;;;;;;;5036424;28;20093;-78
2022/04/18 14:30:03;;;;;;;5.00;2.80;;;;;;;;;;5036283;28;20034;-78
2022/04/18 14:32:29;;;;;;;4.72;2.80;;;;;;;;;;5035572;28;20045;-76
2022/04/18 14:34:56;;;;;;;5.22;2.50;;;;;;;;;;5034527;28;20053;-78
2022/04/18 14:37:24;;;;;;;4.00;2.55;;;;;;;;;;5034518;28;20113;-78
2022/04/18 14:39:50;;;;;;;3.75;2.47;;;;;;;;;;5034349;28;20425;-77
2022/04/18 14:42:16;;;;;;;5.68;2.95;;;;;;;;;;5034584;28;20028;-77
2022/04/18 14:44:43;;;;;;;4.03;2.65;;;;;;;;;;5035259;28;20398;-77
2022/04/18 14:47:09;;;;;;;4.32;2.30;;;;;;;;;;5033830;28;20022;-77
2022/04/18 14:49:35;;;;;;;6.15;2.97;;;;;;;;;;5035075;28;20025;-78